sensor_id;sensor_type;location;lat;lon;timestamp;P1;durP1;ratioP1;P2;durP2;ratioP2
12177;SDS011;6152;48.728;9.256;2023-02-01T00:02:03;4.73;;;2.97;;
12177;SDS011;6152;48.728;9.256;2023-02-01T00:04:30;4.60;;;3.17;;
12177;SDS011;6152;48.728;9.256;2023-02-01T00:06:57;4.43;;;2.70;;
12177;SDS011;6152;48.728;9.256;2023-02-01T00:09:23;5.90;;;2.60;;
12177;SDS011;6152;48.728;9.256;2023-02-01T00:11:49;4.70;;;3.17;;
12177;SDS011;6152;48.728;9.256;2023-02-01T00:14:15;4.20;;;3.10;;
12177;SDS011;6152;48.728;9.256;2023-02-01T00:16:42;7.80;;;3.22;;
12177;SDS011;6152;48.728;9.256;2023-02-01T00:19:12;4.38;;;2.88;;
12177;SDS011;6152;48.728;9.256;2023-02-01T00:21:39;3.17;;;2.17;;
12177;SDS011;6152;48.728;9.256;2023-02-01T00:24:05;3.95;;;2.85;;
12177;SDS011;6152;48.728;9.256;2023-02-01T00:29:00;5.20;;;2.10;;
12177;SDS011;6152;48.728;9.256;2023-02-01T00:31:27;3.92;;;2.55;;
12177;SDS011;6152;48.728;9.256;2023-02-01T00:33:54;2.65;;;1.90;;
12177;SDS011;6152;48.728;9.256;2023-02-01T00:36:20;3.00;;;2.05;;
12177;SDS011;6152;48.728;9.256;2023-02-01T00:38:46;4.47;;;2.10;;
12177;SDS011;6152;48.728;9.256;2023-02-01T00:41:13;4.25;;;1.95;;
12177;SDS011;6152;48.728;9.256;2023-02-01T00:43:41;2.95;;;2.22;;
12177;SDS011;6152;48.728;9.256;2023-02-01T00:46:09;2.15;;;1.90;;
12177;SDS011;6152;48.728;9.256;2023-02-01T00:48:37;2.53;;;2.10;;
12177;SDS011;6152;48.728;9.256;2023-02-01T00:51:04;2.88;;;2.20;;
12177;SDS011;6152;48.728;9.256;2023-02-01T00:53:32;3.03;;;1.85;;
12177;SDS011;6152;48.728;9.256;2023-02-01T00:55:59;2.75;;;1.92;;
12177;SDS011;6152;48.728;9.256;2023-02-01T00:58:25;3.85;;;1.88;;
12177;SDS011;6152;48.728;9.256;2023-02-01T01:01:26;2.75;;;1.70;;
12177;SDS011;6152;48.728;9.256;2023-02-01T01:03:47;1.63;;;1.52;;
12177;SDS011;6152;48.728;9.256;2023-02-01T01:06:17;2.05;;;1.73;;
12177;SDS011;6152;48.728;9.256;2023-02-01T01:08:55;1.88;;;1.60;;
12177;SDS011;6152;48.728;9.256;2023-02-01T01:11:25;2.97;;;1.77;;
12177;SDS011;6152;48.728;9.256;2023-02-01T01:13:56;3.85;;;1.80;;
12177;SDS011;6152;48.728;9.256;2023-02-01T01:16:24;2.80;;;1.60;;
12177;SDS011;6152;48.728;9.256;2023-02-01T01:18:52;2.53;;;1.63;;
12177;SDS011;6152;48.728;9.256;2023-02-01T01:21:19;3.20;;;1.67;;
12177;SDS011;6152;48.728;9.256;2023-02-01T01:23:46;2.20;;;1.85;;
12177;SDS011;6152;48.728;9.256;2023-02-01T01:26:17;1.50;;;1.40;;
12177;SDS011;6152;48.728;9.256;2023-02-01T01:28:45;4.03;;;1.83;;
12177;SDS011;6152;48.728;9.256;2023-02-01T01:31:12;2.28;;;1.52;;
12177;SDS011;6152;48.728;9.256;2023-02-01T01:33:39;1.75;;;1.55;;
12177;SDS011;6152;48.728;9.256;2023-02-01T01:36:06;1.95;;;1.75;;
12177;SDS011;6152;48.728;9.256;2023-02-01T01:38:36;2.00;;;1.40;;
12177;SDS011;6152;48.728;9.256;2023-02-01T01:41:03;1.73;;;1.60;;
12177;SDS011;6152;48.728;9.256;2023-02-01T01:46:21;2.08;;;1.55;;
12177;SDS011;6152;48.728;9.256;2023-02-01T01:49:08;1.67;;;1.58;;
12177;SDS011;6152;48.728;9.256;2023-02-01T01:51:44;2.08;;;1.60;;
12177;SDS011;6152;48.728;9.256;2023-02-01T01:54:25;2.25;;;1.67;;
12177;SDS011;6152;48.728;9.256;2023-02-01T02:02:36;2.00;;;1.80;;
12177;SDS011;6152;48.728;9.256;2023-02-01T02:05:04;2.35;;;1.77;;
12177;SDS011;6152;48.728;9.256;2023-02-01T02:07:32;1.60;;;1.48;;
12177;SDS011;6152;48.728;9.256;2023-02-01T02:10:05;2.10;;;1.63;;
12177;SDS011;6152;48.728;9.256;2023-02-01T02:12:35;1.90;;;1.70;;
12177;SDS011;6152;48.728;9.256;2023-02-01T02:15:06;2.75;;;1.70;;
12177;SDS011;6152;48.728;9.256;2023-02-01T02:20:28;1.60;;;1.50;;
12177;SDS011;6152;48.728;9.256;2023-02-01T02:34:15;2.03;;;1.57;;
12177;SDS011;6152;48.728;9.256;2023-02-01T02:45:23;1.23;;;1.13;;
12177;SDS011;6152;48.728;9.256;2023-02-01T02:48:37;2.70;;;1.40;;
12177;SDS011;6152;48.728;9.256;2023-02-01T02:51:18;1.83;;;1.73;;
12177;SDS011;6152;48.728;9.256;2023-02-01T02:54:10;1.83;;;1.47;;
12177;SDS011;6152;48.728;9.256;2023-02-01T02:56:59;2.33;;;1.57;;
12177;SDS011;6152;48.728;9.256;2023-02-01T02:59:48;1.97;;;1.23;;
12177;SDS011;6152;48.728;9.256;2023-02-01T03:02:34;1.60;;;1.43;;
12177;SDS011;6152;48.728;9.256;2023-02-01T03:05:19;1.80;;;1.67;;
12177;SDS011;6152;48.728;9.256;2023-02-01T03:08:02;1.50;;;1.17;;
12177;SDS011;6152;48.728;9.256;2023-02-01T03:13:51;1.77;;;1.30;;
12177;SDS011;6152;48.728;9.256;2023-02-01T03:19:07;2.43;;;1.90;;
12177;SDS011;6152;48.728;9.256;2023-02-01T03:21:52;2.07;;;1.73;;
12177;SDS011;6152;48.728;9.256;2023-02-01T03:27:14;2.50;;;1.90;;
12177;SDS011;6152;48.728;9.256;2023-02-01T03:29:54;2.17;;;1.80;;
12177;SDS011;6152;48.728;9.256;2023-02-01T03:32:30;2.03;;;1.87;;
12177;SDS011;6152;48.728;9.256;2023-02-01T03:35:17;2.10;;;1.80;;
12177;SDS011;6152;48.728;9.256;2023-02-01T03:38:17;3.53;;;2.00;;
12177;SDS011;6152;48.728;9.256;2023-02-01T03:40:45;5.40;;;2.03;;
12177;SDS011;6152;48.728;9.256;2023-02-01T03:43:16;3.23;;;1.97;;
12177;SDS011;6152;48.728;9.256;2023-02-01T03:45:46;2.80;;;2.37;;
12177;SDS011;6152;48.728;9.256;2023-02-01T03:48:21;3.13;;;2.20;;
12177;SDS011;6152;48.728;9.256;2023-02-01T03:50:49;2.03;;;1.83;;
12177;SDS011;6152;48.728;9.256;2023-02-01T03:53:20;2.50;;;1.90;;
12177;SDS011;6152;48.728;9.256;2023-02-01T03:55:49;2.07;;;1.83;;
12177;SDS011;6152;48.728;9.256;2023-02-01T03:58:18;2.47;;;1.90;;
12177;SDS011;6152;48.728;9.256;2023-02-01T04:00:50;2.30;;;1.87;;
12177;SDS011;6152;48.728;9.256;2023-02-01T04:03:18;2.60;;;2.13;;
12177;SDS011;6152;48.728;9.256;2023-02-01T04:05:44;3.40;;;2.40;;
12177;SDS011;6152;48.728;9.256;2023-02-01T04:08:10;2.70;;;2.23;;
12177;SDS011;6152;48.728;9.256;2023-02-01T04:10:36;2.60;;;2.00;;
12177;SDS011;6152;48.728;9.256;2023-02-01T04:13:03;3.57;;;2.00;;
12177;SDS011;6152;48.728;9.256;2023-02-01T04:15:29;3.10;;;2.00;;
12177;SDS011;6152;48.728;9.256;2023-02-01T04:17:55;2.57;;;2.00;;
12177;SDS011;6152;48.728;9.256;2023-02-01T04:20:21;4.10;;;2.60;;
12177;SDS011;6152;48.728;9.256;2023-02-01T04:22:47;2.90;;;1.90;;
12177;SDS011;6152;48.728;9.256;2023-02-01T04:25:13;2.30;;;2.07;;
12177;SDS011;6152;48.728;9.256;2023-02-01T04:27:42;3.83;;;2.53;;
12177;SDS011;6152;48.728;9.256;2023-02-01T04:30:08;2.17;;;1.93;;
12177;SDS011;6152;48.728;9.256;2023-02-01T04:32:35;4.17;;;2.27;;
12177;SDS011;6152;48.728;9.256;2023-02-01T04:35:02;3.20;;;2.00;;
12177;SDS011;6152;48.728;9.256;2023-02-01T04:37:29;3.03;;;2.07;;
12177;SDS011;6152;48.728;9.256;2023-02-01T04:39:55;2.67;;;2.07;;
12177;SDS011;6152;48.728;9.256;2023-02-01T04:42:21;2.90;;;2.30;;
12177;SDS011;6152;48.728;9.256;2023-02-01T04:44:47;3.70;;;2.40;;
12177;SDS011;6152;48.728;9.256;2023-02-01T04:47:13;2.27;;;1.80;;
12177;SDS011;6152;48.728;9.256;2023-02-01T04:49:40;1.97;;;1.73;;
12177;SDS011;6152;48.728;9.256;2023-02-01T04:52:07;2.23;;;2.00;;
12177;SDS011;6152;48.728;9.256;2023-02-01T04:54:33;2.73;;;2.20;;
12177;SDS011;6152;48.728;9.256;2023-02-01T04:56:59;2.90;;;1.90;;
12177;SDS011;6152;48.728;9.256;2023-02-01T04:59:26;3.70;;;2.20;;
12177;SDS011;6152;48.728;9.256;2023-02-01T05:01:53;2.23;;;2.00;;
12177;SDS011;6152;48.728;9.256;2023-02-01T05:04:19;3.43;;;1.83;;
12177;SDS011;6152;48.728;9.256;2023-02-01T05:06:45;2.13;;;1.60;;
12177;SDS011;6152;48.728;9.256;2023-02-01T05:09:11;1.93;;;1.80;;
12177;SDS011;6152;48.728;9.256;2023-02-01T05:11:38;4.97;;;1.87;;
12177;SDS011;6152;48.728;9.256;2023-02-01T05:14:23;2.30;;;1.80;;
12177;SDS011;6152;48.728;9.256;2023-02-01T05:16:49;3.63;;;1.90;;
12177;SDS011;6152;48.728;9.256;2023-02-01T05:19:15;1.70;;;1.60;;
12177;SDS011;6152;48.728;9.256;2023-02-01T05:21:41;2.33;;;2.10;;
12177;SDS011;6152;48.728;9.256;2023-02-01T05:24:08;3.20;;;1.40;;
12177;SDS011;6152;48.728;9.256;2023-02-01T05:26:34;2.57;;;1.43;;
12177;SDS011;6152;48.728;9.256;2023-02-01T05:29:00;2.17;;;1.77;;
12177;SDS011;6152;48.728;9.256;2023-02-01T05:31:27;3.03;;;2.00;;
12177;SDS011;6152;48.728;9.256;2023-02-01T05:33:54;2.17;;;1.40;;
12177;SDS011;6152;48.728;9.256;2023-02-01T05:36:20;3.43;;;1.73;;
12177;SDS011;6152;48.728;9.256;2023-02-01T05:38:46;1.70;;;1.53;;
12177;SDS011;6152;48.728;9.256;2023-02-01T05:41:12;3.80;;;1.80;;
12177;SDS011;6152;48.728;9.256;2023-02-01T05:43:38;2.33;;;1.60;;
12177;SDS011;6152;48.728;9.256;2023-02-01T05:46:05;2.53;;;1.63;;
12177;SDS011;6152;48.728;9.256;2023-02-01T05:48:31;1.93;;;1.40;;
12177;SDS011;6152;48.728;9.256;2023-02-01T05:50:57;3.27;;;1.87;;
12177;SDS011;6152;48.728;9.256;2023-02-01T05:53:23;1.80;;;1.47;;
12177;SDS011;6152;48.728;9.256;2023-02-01T05:55:49;1.23;;;1.13;;
12177;SDS011;6152;48.728;9.256;2023-02-01T05:58:15;1.70;;;1.40;;
12177;SDS011;6152;48.728;9.256;2023-02-01T06:00:41;1.20;;;1.10;;
12177;SDS011;6152;48.728;9.256;2023-02-01T06:03:08;1.83;;;1.67;;
12177;SDS011;6152;48.728;9.256;2023-02-01T06:05:34;1.43;;;1.33;;
12177;SDS011;6152;48.728;9.256;2023-02-01T06:08:00;2.73;;;1.47;;
12177;SDS011;6152;48.728;9.256;2023-02-01T06:10:26;2.00;;;1.77;;
12177;SDS011;6152;48.728;9.256;2023-02-01T06:12:52;2.07;;;1.43;;
12177;SDS011;6152;48.728;9.256;2023-02-01T06:15:18;1.30;;;1.20;;
12177;SDS011;6152;48.728;9.256;2023-02-01T06:17:44;1.47;;;1.37;;
12177;SDS011;6152;48.728;9.256;2023-02-01T06:20:12;2.50;;;1.73;;
12177;SDS011;6152;48.728;9.256;2023-02-01T06:22:39;2.27;;;1.27;;
12177;SDS011;6152;48.728;9.256;2023-02-01T06:25:05;1.53;;;1.30;;
12177;SDS011;6152;48.728;9.256;2023-02-01T06:27:33;3.57;;;1.67;;
12177;SDS011;6152;48.728;9.256;2023-02-01T06:29:59;2.67;;;1.83;;
12177;SDS011;6152;48.728;9.256;2023-02-01T06:32:25;1.03;;;0.87;;
12177;SDS011;6152;48.728;9.256;2023-02-01T06:34:51;1.60;;;1.30;;
12177;SDS011;6152;48.728;9.256;2023-02-01T06:37:18;2.53;;;1.70;;
12177;SDS011;6152;48.728;9.256;2023-02-01T06:39:44;3.93;;;1.73;;
12177;SDS011;6152;48.728;9.256;2023-02-01T06:42:10;1.97;;;1.30;;
12177;SDS011;6152;48.728;9.256;2023-02-01T06:44:37;1.70;;;1.33;;
12177;SDS011;6152;48.728;9.256;2023-02-01T06:47:03;2.70;;;1.77;;
12177;SDS011;6152;48.728;9.256;2023-02-01T06:49:30;2.07;;;1.90;;
12177;SDS011;6152;48.728;9.256;2023-02-01T06:51:56;2.00;;;1.80;;
12177;SDS011;6152;48.728;9.256;2023-02-01T06:54:25;2.00;;;1.70;;
12177;SDS011;6152;48.728;9.256;2023-02-01T06:56:51;1.93;;;1.50;;
12177;SDS011;6152;48.728;9.256;2023-02-01T06:59:17;1.60;;;1.50;;
12177;SDS011;6152;48.728;9.256;2023-02-01T07:01:43;3.13;;;1.80;;
12177;SDS011;6152;48.728;9.256;2023-02-01T07:04:10;2.77;;;1.80;;
12177;SDS011;6152;48.728;9.256;2023-02-01T07:06:37;3.27;;;1.80;;
12177;SDS011;6152;48.728;9.256;2023-02-01T07:09:04;3.53;;;1.80;;
12177;SDS011;6152;48.728;9.256;2023-02-01T07:11:31;2.37;;;1.80;;
12177;SDS011;6152;48.728;9.256;2023-02-01T07:13:57;3.00;;;2.03;;
12177;SDS011;6152;48.728;9.256;2023-02-01T07:16:24;3.03;;;1.63;;
12177;SDS011;6152;48.728;9.256;2023-02-01T07:18:51;2.13;;;1.50;;
12177;SDS011;6152;48.728;9.256;2023-02-01T07:21:17;2.47;;;1.63;;
12177;SDS011;6152;48.728;9.256;2023-02-01T07:23:44;2.20;;;1.20;;
12177;SDS011;6152;48.728;9.256;2023-02-01T07:26:11;2.27;;;1.90;;
12177;SDS011;6152;48.728;9.256;2023-02-01T07:28:39;1.67;;;1.53;;
12177;SDS011;6152;48.728;9.256;2023-02-01T07:31:06;1.27;;;1.17;;
12177;SDS011;6152;48.728;9.256;2023-02-01T07:33:34;2.20;;;1.70;;
12177;SDS011;6152;48.728;9.256;2023-02-01T07:36:01;1.80;;;1.53;;
12177;SDS011;6152;48.728;9.256;2023-02-01T07:38:29;1.83;;;1.73;;
12177;SDS011;6152;48.728;9.256;2023-02-01T07:40:59;3.30;;;2.00;;
12177;SDS011;6152;48.728;9.256;2023-02-01T07:43:26;4.07;;;1.50;;
12177;SDS011;6152;48.728;9.256;2023-02-01T07:45:53;3.43;;;1.70;;
12177;SDS011;6152;48.728;9.256;2023-02-01T07:48:20;2.50;;;1.70;;
12177;SDS011;6152;48.728;9.256;2023-02-01T07:50:47;3.50;;;1.60;;
12177;SDS011;6152;48.728;9.256;2023-02-01T07:53:21;1.50;;;1.40;;
12177;SDS011;6152;48.728;9.256;2023-02-01T07:55:47;2.20;;;1.90;;
12177;SDS011;6152;48.728;9.256;2023-02-01T07:58:13;4.03;;;1.70;;
12177;SDS011;6152;48.728;9.256;2023-02-01T08:00:39;3.23;;;1.50;;
12177;SDS011;6152;48.728;9.256;2023-02-01T08:03:23;1.50;;;1.40;;
12177;SDS011;6152;48.728;9.256;2023-02-01T08:05:53;4.20;;;2.07;;
12177;SDS011;6152;48.728;9.256;2023-02-01T08:08:20;1.77;;;1.33;;
12177;SDS011;6152;48.728;9.256;2023-02-01T08:10:46;2.43;;;1.63;;
12177;SDS011;6152;48.728;9.256;2023-02-01T08:13:13;2.10;;;1.50;;
12177;SDS011;6152;48.728;9.256;2023-02-01T08:15:39;1.70;;;1.60;;
12177;SDS011;6152;48.728;9.256;2023-02-01T08:18:05;2.50;;;1.70;;
12177;SDS011;6152;48.728;9.256;2023-02-01T08:20:31;1.83;;;1.50;;
12177;SDS011;6152;48.728;9.256;2023-02-01T08:23:00;1.63;;;0.97;;
12177;SDS011;6152;48.728;9.256;2023-02-01T08:25:26;2.27;;;1.50;;
12177;SDS011;6152;48.728;9.256;2023-02-01T08:27:52;1.57;;;1.27;;
12177;SDS011;6152;48.728;9.256;2023-02-01T08:30:19;3.40;;;1.33;;
12177;SDS011;6152;48.728;9.256;2023-02-01T08:32:46;2.63;;;1.60;;
12177;SDS011;6152;48.728;9.256;2023-02-01T08:35:13;2.83;;;1.43;;
12177;SDS011;6152;48.728;9.256;2023-02-01T08:37:39;2.72;;;1.20;;
12177;SDS011;6152;48.728;9.256;2023-02-01T08:40:05;2.58;;;1.35;;
12177;SDS011;6152;48.728;9.256;2023-02-01T08:42:32;1.48;;;1.13;;
12177;SDS011;6152;48.728;9.256;2023-02-01T08:45:20;2.83;;;1.33;;
12177;SDS011;6152;48.728;9.256;2023-02-01T08:47:51;1.88;;;1.42;;
12177;SDS011;6152;48.728;9.256;2023-02-01T08:50:18;2.97;;;1.15;;
12177;SDS011;6152;48.728;9.256;2023-02-01T08:52:45;2.85;;;1.23;;
12177;SDS011;6152;48.728;9.256;2023-02-01T08:55:11;2.40;;;1.60;;
12177;SDS011;6152;48.728;9.256;2023-02-01T08:57:38;2.58;;;1.27;;
12177;SDS011;6152;48.728;9.256;2023-02-01T09:00:07;2.10;;;1.30;;
12177;SDS011;6152;48.728;9.256;2023-02-01T09:02:36;1.92;;;1.50;;
12177;SDS011;6152;48.728;9.256;2023-02-01T09:05:03;3.90;;;1.67;;
12177;SDS011;6152;48.728;9.256;2023-02-01T09:07:30;1.70;;;1.20;;
12177;SDS011;6152;48.728;9.256;2023-02-01T09:09:56;1.98;;;1.30;;
12177;SDS011;6152;48.728;9.256;2023-02-01T09:12:25;3.20;;;1.33;;
12177;SDS011;6152;48.728;9.256;2023-02-01T09:14:52;1.95;;;1.40;;
12177;SDS011;6152;48.728;9.256;2023-02-01T09:17:20;4.25;;;1.20;;
12177;SDS011;6152;48.728;9.256;2023-02-01T09:19:46;1.20;;;1.05;;
12177;SDS011;6152;48.728;9.256;2023-02-01T09:22:12;0.93;;;0.88;;
12177;SDS011;6152;48.728;9.256;2023-02-01T09:24:40;1.42;;;1.10;;
12177;SDS011;6152;48.728;9.256;2023-02-01T09:27:07;4.43;;;1.40;;
12177;SDS011;6152;48.728;9.256;2023-02-01T09:29:33;1.70;;;1.38;;
12177;SDS011;6152;48.728;9.256;2023-02-01T09:31:59;4.32;;;1.67;;
12177;SDS011;6152;48.728;9.256;2023-02-01T09:34:25;2.03;;;1.45;;
12177;SDS011;6152;48.728;9.256;2023-02-01T09:36:51;2.45;;;1.77;;
12177;SDS011;6152;48.728;9.256;2023-02-01T09:39:17;2.47;;;1.48;;
12177;SDS011;6152;48.728;9.256;2023-02-01T09:46:56;6.70;;;1.75;;
12177;SDS011;6152;48.728;9.256;2023-02-01T09:49:29;3.53;;;1.63;;
12177;SDS011;6152;48.728;9.256;2023-02-01T09:51:57;3.22;;;1.65;;
12177;SDS011;6152;48.728;9.256;2023-02-01T09:54:28;2.35;;;1.30;;
12177;SDS011;6152;48.728;9.256;2023-02-01T09:59:44;2.88;;;1.92;;
12177;SDS011;6152;48.728;9.256;2023-02-01T10:02:23;4.60;;;1.73;;
12177;SDS011;6152;48.728;9.256;2023-02-01T10:04:52;3.25;;;1.60;;
12177;SDS011;6152;48.728;9.256;2023-02-01T10:07:43;3.63;;;1.40;;
12177;SDS011;6152;48.728;9.256;2023-02-01T10:10:34;3.95;;;1.80;;
12177;SDS011;6152;48.728;9.256;2023-02-01T10:13:16;3.13;;;1.30;;
12177;SDS011;6152;48.728;9.256;2023-02-01T10:18:52;4.88;;;1.30;;
12177;SDS011;6152;48.728;9.256;2023-02-01T10:27:34;4.20;;;1.25;;
12177;SDS011;6152;48.728;9.256;2023-02-01T10:32:49;4.38;;;1.23;;
12177;SDS011;6152;48.728;9.256;2023-02-01T10:35:24;4.50;;;1.27;;
12177;SDS011;6152;48.728;9.256;2023-02-01T10:37:54;5.53;;;1.63;;
12177;SDS011;6152;48.728;9.256;2023-02-01T10:40:25;4.82;;;2.13;;
12177;SDS011;6152;48.728;9.256;2023-02-01T10:42:53;2.83;;;1.90;;
12177;SDS011;6152;48.728;9.256;2023-02-01T10:45:26;2.03;;;1.20;;
12177;SDS011;6152;48.728;9.256;2023-02-01T10:47:55;4.28;;;1.42;;
12177;SDS011;6152;48.728;9.256;2023-02-01T10:50:37;4.00;;;1.27;;
12177;SDS011;6152;48.728;9.256;2023-02-01T10:55:52;2.95;;;1.30;;
12177;SDS011;6152;48.728;9.256;2023-02-01T11:01:02;6.43;;;1.63;;
12177;SDS011;6152;48.728;9.256;2023-02-01T11:06:48;6.35;;;2.40;;
12177;SDS011;6152;48.728;9.256;2023-02-01T11:09:01;3.63;;;1.67;;
12177;SDS011;6152;48.728;9.256;2023-02-01T11:11:56;7.43;;;2.00;;
12177;SDS011;6152;48.728;9.256;2023-02-01T11:16:57;8.13;;;1.70;;
12177;SDS011;6152;48.728;9.256;2023-02-01T11:19:25;5.53;;;1.40;;
12177;SDS011;6152;48.728;9.256;2023-02-01T11:21:53;7.03;;;1.40;;
12177;SDS011;6152;48.728;9.256;2023-02-01T11:24:28;6.50;;;1.42;;
12177;SDS011;6152;48.728;9.256;2023-02-01T11:27:04;4.45;;;1.80;;
12177;SDS011;6152;48.728;9.256;2023-02-01T11:29:39;4.80;;;1.83;;
12177;SDS011;6152;48.728;9.256;2023-02-01T11:32:09;10.90;;;1.80;;
12177;SDS011;6152;48.728;9.256;2023-02-01T11:34:45;6.30;;;1.40;;
12177;SDS011;6152;48.728;9.256;2023-02-01T11:37:14;6.35;;;1.35;;
12177;SDS011;6152;48.728;9.256;2023-02-01T11:42:56;3.65;;;1.38;;
12177;SDS011;6152;48.728;9.256;2023-02-01T11:45:33;8.23;;;1.67;;
12177;SDS011;6152;48.728;9.256;2023-02-01T11:48:02;5.85;;;2.13;;
12177;SDS011;6152;48.728;9.256;2023-02-01T12:02:06;5.95;;;1.60;;
12177;SDS011;6152;48.728;9.256;2023-02-01T12:04:57;3.95;;;1.63;;
12177;SDS011;6152;48.728;9.256;2023-02-01T12:13:20;10.88;;;1.85;;
12177;SDS011;6152;48.728;9.256;2023-02-01T12:15:58;8.40;;;1.50;;
12177;SDS011;6152;48.728;9.256;2023-02-01T12:18:57;8.82;;;1.73;;
12177;SDS011;6152;48.728;9.256;2023-02-01T12:32:56;5.88;;;1.83;;
12177;SDS011;6152;48.728;9.256;2023-02-01T12:35:10;11.25;;;2.15;;
12177;SDS011;6152;48.728;9.256;2023-02-01T12:38:04;7.40;;;1.52;;
12177;SDS011;6152;48.728;9.256;2023-02-01T12:41:02;8.68;;;1.60;;
12177;SDS011;6152;48.728;9.256;2023-02-01T12:49:12;4.85;;;1.70;;
12177;SDS011;6152;48.728;9.256;2023-02-01T12:51:54;6.60;;;1.73;;
12177;SDS011;6152;48.728;9.256;2023-02-01T12:57:04;7.13;;;2.08;;
12177;SDS011;6152;48.728;9.256;2023-02-01T12:59:37;5.57;;;1.48;;
12177;SDS011;6152;48.728;9.256;2023-02-01T13:04:52;5.68;;;1.10;;
12177;SDS011;6152;48.728;9.256;2023-02-01T13:08:07;3.75;;;2.13;;
12177;SDS011;6152;48.728;9.256;2023-02-01T13:10:53;9.65;;;1.67;;
12177;SDS011;6152;48.728;9.256;2023-02-01T13:13:28;8.73;;;1.70;;
12177;SDS011;6152;48.728;9.256;2023-02-01T13:16:18;6.80;;;1.45;;
12177;SDS011;6152;48.728;9.256;2023-02-01T13:18:55;8.20;;;1.80;;
12177;SDS011;6152;48.728;9.256;2023-02-01T13:21:43;5.60;;;1.42;;
12177;SDS011;6152;48.728;9.256;2023-02-01T13:24:23;6.97;;;1.73;;
12177;SDS011;6152;48.728;9.256;2023-02-01T13:26:59;7.90;;;1.58;;
12177;SDS011;6152;48.728;9.256;2023-02-01T13:29:26;3.97;;;1.48;;
12177;SDS011;6152;48.728;9.256;2023-02-01T13:37:36;3.08;;;1.25;;
12177;SDS011;6152;48.728;9.256;2023-02-01T13:42:56;5.13;;;1.33;;
12177;SDS011;6152;48.728;9.256;2023-02-01T13:45:27;9.23;;;1.73;;
12177;SDS011;6152;48.728;9.256;2023-02-01T13:47:58;6.60;;;1.58;;
12177;SDS011;6152;48.728;9.256;2023-02-01T13:50:32;3.40;;;1.50;;
12177;SDS011;6152;48.728;9.256;2023-02-01T13:55:56;4.40;;;1.23;;
12177;SDS011;6152;48.728;9.256;2023-02-01T13:58:35;4.00;;;1.52;;
12177;SDS011;6152;48.728;9.256;2023-02-01T14:03:47;3.10;;;1.48;;
12177;SDS011;6152;48.728;9.256;2023-02-01T14:06:38;3.30;;;1.45;;
12177;SDS011;6152;48.728;9.256;2023-02-01T14:11:56;9.15;;;1.60;;
12177;SDS011;6152;48.728;9.256;2023-02-01T14:19:21;3.00;;;1.20;;
12177;SDS011;6152;48.728;9.256;2023-02-01T14:24:27;9.10;;;1.92;;
12177;SDS011;6152;48.728;9.256;2023-02-01T14:29:43;4.85;;;1.48;;
12177;SDS011;6152;48.728;9.256;2023-02-01T14:32:23;6.30;;;1.63;;
12177;SDS011;6152;48.728;9.256;2023-02-01T14:35:02;5.95;;;1.20;;
12177;SDS011;6152;48.728;9.256;2023-02-01T14:37:44;2.95;;;1.70;;
12177;SDS011;6152;48.728;9.256;2023-02-01T14:42:39;4.65;;;1.55;;
12177;SDS011;6152;48.728;9.256;2023-02-01T14:58:10;6.25;;;1.73;;
12177;SDS011;6152;48.728;9.256;2023-02-01T15:01:03;12.82;;;1.48;;
12177;SDS011;6152;48.728;9.256;2023-02-01T15:04:04;5.07;;;2.03;;
12177;SDS011;6152;48.728;9.256;2023-02-01T15:09:16;5.68;;;1.80;;
12177;SDS011;6152;48.728;9.256;2023-02-01T15:14:45;8.75;;;1.60;;
12177;SDS011;6152;48.728;9.256;2023-02-01T15:20:00;6.32;;;1.88;;
12177;SDS011;6152;48.728;9.256;2023-02-01T15:22:30;6.47;;;1.52;;
12177;SDS011;6152;48.728;9.256;2023-02-01T15:24:57;4.55;;;1.58;;
12177;SDS011;6152;48.728;9.256;2023-02-01T15:27:24;9.02;;;1.80;;
12177;SDS011;6152;48.728;9.256;2023-02-01T15:29:52;7.55;;;1.85;;
12177;SDS011;6152;48.728;9.256;2023-02-01T15:32:28;6.78;;;2.10;;
12177;SDS011;6152;48.728;9.256;2023-02-01T15:34:58;6.35;;;1.52;;
12177;SDS011;6152;48.728;9.256;2023-02-01T15:37:25;7.65;;;1.95;;
12177;SDS011;6152;48.728;9.256;2023-02-01T15:42:47;10.02;;;3.67;;
12177;SDS011;6152;48.728;9.256;2023-02-01T15:45:21;7.20;;;2.45;;
12177;SDS011;6152;48.728;9.256;2023-02-01T15:47:54;4.72;;;1.52;;
12177;SDS011;6152;48.728;9.256;2023-02-01T15:50:22;9.23;;;1.75;;
12177;SDS011;6152;48.728;9.256;2023-02-01T15:52:49;6.90;;;1.40;;
12177;SDS011;6152;48.728;9.256;2023-02-01T15:55:18;5.47;;;2.03;;
12177;SDS011;6152;48.728;9.256;2023-02-01T15:57:49;5.18;;;1.40;;
12177;SDS011;6152;48.728;9.256;2023-02-01T16:00:23;6.78;;;2.35;;
12177;SDS011;6152;48.728;9.256;2023-02-01T16:03:00;7.32;;;1.50;;
12177;SDS011;6152;48.728;9.256;2023-02-01T16:05:35;8.25;;;1.33;;
12177;SDS011;6152;48.728;9.256;2023-02-01T16:08:11;6.68;;;1.50;;
12177;SDS011;6152;48.728;9.256;2023-02-01T16:10:41;5.50;;;2.00;;
12177;SDS011;6152;48.728;9.256;2023-02-01T16:13:09;5.03;;;1.83;;
12177;SDS011;6152;48.728;9.256;2023-02-01T16:15:36;3.92;;;1.65;;
12177;SDS011;6152;48.728;9.256;2023-02-01T16:18:03;5.35;;;1.60;;
12177;SDS011;6152;48.728;9.256;2023-02-01T16:20:29;4.88;;;2.03;;
12177;SDS011;6152;48.728;9.256;2023-02-01T16:22:56;5.43;;;2.08;;
12177;SDS011;6152;48.728;9.256;2023-02-01T16:25:22;2.72;;;1.58;;
12177;SDS011;6152;48.728;9.256;2023-02-01T16:27:48;7.32;;;1.80;;
12177;SDS011;6152;48.728;9.256;2023-02-01T16:30:15;5.20;;;1.60;;
12177;SDS011;6152;48.728;9.256;2023-02-01T16:32:47;8.32;;;1.85;;
12177;SDS011;6152;48.728;9.256;2023-02-01T16:35:16;3.72;;;1.35;;
12177;SDS011;6152;48.728;9.256;2023-02-01T16:37:46;7.55;;;1.50;;
12177;SDS011;6152;48.728;9.256;2023-02-01T16:40:16;6.88;;;1.45;;
12177;SDS011;6152;48.728;9.256;2023-02-01T16:42:43;3.53;;;1.65;;
12177;SDS011;6152;48.728;9.256;2023-02-01T16:45:12;6.07;;;1.70;;
12177;SDS011;6152;48.728;9.256;2023-02-01T16:47:39;4.90;;;1.58;;
12177;SDS011;6152;48.728;9.256;2023-02-01T16:50:15;7.30;;;2.08;;
12177;SDS011;6152;48.728;9.256;2023-02-01T16:52:47;9.73;;;3.00;;
12177;SDS011;6152;48.728;9.256;2023-02-01T16:55:14;9.10;;;2.33;;
12177;SDS011;6152;48.728;9.256;2023-02-01T16:57:41;5.60;;;2.10;;
12177;SDS011;6152;48.728;9.256;2023-02-01T17:00:09;5.05;;;1.42;;
12177;SDS011;6152;48.728;9.256;2023-02-01T17:02:37;3.05;;;1.30;;
12177;SDS011;6152;48.728;9.256;2023-02-01T17:05:04;7.20;;;1.83;;
12177;SDS011;6152;48.728;9.256;2023-02-01T17:07:30;5.35;;;1.73;;
12177;SDS011;6152;48.728;9.256;2023-02-01T17:09:56;6.68;;;1.92;;
12177;SDS011;6152;48.728;9.256;2023-02-01T17:14:50;7.20;;;1.63;;
12177;SDS011;6152;48.728;9.256;2023-02-01T17:17:17;6.43;;;1.90;;
12177;SDS011;6152;48.728;9.256;2023-02-01T17:19:46;7.32;;;1.75;;
12177;SDS011;6152;48.728;9.256;2023-02-01T17:22:21;4.68;;;1.45;;
12177;SDS011;6152;48.728;9.256;2023-02-01T17:24:48;8.85;;;2.17;;
12177;SDS011;6152;48.728;9.256;2023-02-01T17:27:15;4.18;;;1.90;;
12177;SDS011;6152;48.728;9.256;2023-02-01T17:29:42;5.03;;;2.33;;
12177;SDS011;6152;48.728;9.256;2023-02-01T17:32:21;8.65;;;2.00;;
12177;SDS011;6152;48.728;9.256;2023-02-01T17:34:49;8.65;;;1.80;;
12177;SDS011;6152;48.728;9.256;2023-02-01T17:37:24;7.43;;;1.73;;
12177;SDS011;6152;48.728;9.256;2023-02-01T17:39:52;5.15;;;1.55;;
12177;SDS011;6152;48.728;9.256;2023-02-01T17:42:19;6.13;;;1.80;;
12177;SDS011;6152;48.728;9.256;2023-02-01T17:44:46;5.13;;;1.92;;
12177;SDS011;6152;48.728;9.256;2023-02-01T17:47:13;8.38;;;2.38;;
12177;SDS011;6152;48.728;9.256;2023-02-01T17:49:39;13.32;;;2.63;;
12177;SDS011;6152;48.728;9.256;2023-02-01T17:52:05;6.38;;;2.15;;
12177;SDS011;6152;48.728;9.256;2023-02-01T17:54:34;6.72;;;1.60;;
12177;SDS011;6152;48.728;9.256;2023-02-01T17:57:00;5.00;;;2.20;;
12177;SDS011;6152;48.728;9.256;2023-02-01T17:59:27;7.57;;;2.20;;
12177;SDS011;6152;48.728;9.256;2023-02-01T18:01:53;3.85;;;1.83;;
12177;SDS011;6152;48.728;9.256;2023-02-01T18:04:25;4.50;;;1.90;;
12177;SDS011;6152;48.728;9.256;2023-02-01T18:06:51;7.88;;;1.75;;
12177;SDS011;6152;48.728;9.256;2023-02-01T18:09:17;4.97;;;1.95;;
12177;SDS011;6152;48.728;9.256;2023-02-01T18:11:43;4.43;;;1.75;;
12177;SDS011;6152;48.728;9.256;2023-02-01T18:14:10;5.65;;;1.65;;